createdAt,value
2019-01-10T00:01:03.267Z,939.91
2019-01-10T00:02:11.276Z,939.95
2019-01-10T00:03:19.436Z,939.91
2019-01-10T00:04:27.609Z,939.93
2019-01-10T00:05:35.557Z,939.89
2019-01-10T00:06:43.673Z,939.93
2019-01-10T00:07:51.569Z,939.92
2019-01-10T00:08:59.690Z,939.90
2019-01-10T00:10:07.878Z,939.86
2019-01-10T00:11:15.820Z,939.88
2019-01-10T00:12:23.888Z,939.86
2019-01-10T00:13:31.824Z,939.91
2019-01-10T00:14:39.893Z,939.91
2019-01-10T00:15:48.122Z,939.93
2019-01-10T00:16:56.037Z,939.95
2019-01-10T00:18:04.044Z,939.95
2019-01-10T00:19:12.146Z,939.92
2019-01-10T00:20:20.320Z,939.98
2019-01-10T00:21:28.353Z,939.94
2019-01-10T00:22:36.334Z,939.97
2019-01-10T00:23:44.366Z,939.96
2019-01-10T00:24:52.495Z,939.98
2019-01-10T00:26:00.534Z,939.94
2019-01-10T00:27:08.648Z,939.93
2019-01-10T00:28:16.617Z,939.94
2019-01-10T00:29:24.587Z,939.90
2019-01-10T00:30:32.711Z,939.88
2019-01-10T00:31:40.788Z,939.87
2019-01-10T00:32:48.887Z,939.86
2019-01-10T00:33:56.922Z,939.85
2019-01-10T00:35:04.981Z,939.88
2019-01-10T00:36:13.010Z,939.88
2019-01-10T00:37:21.030Z,939.84
2019-01-10T00:38:29.103Z,939.87
2019-01-10T00:39:39.372Z,939.88
2019-01-10T00:40:45.124Z,939.89
2019-01-10T00:41:53.208Z,939.89
2019-01-10T00:43:01.400Z,939.93
2019-01-10T00:44:09.401Z,939.95
2019-01-10T00:45:17.392Z,939.93
2019-01-10T00:46:25.485Z,939.98
2019-01-10T00:47:33.583Z,940.00
2019-01-10T00:48:41.705Z,940.02
2019-01-10T00:49:49.659Z,940.03
2019-01-10T00:50:57.598Z,940.04
2019-01-10T00:52:05.759Z,940.04
2019-01-10T00:53:13.702Z,940.04
2019-01-10T00:54:21.858Z,940.04
2019-01-10T00:55:29.803Z,940.04
2019-01-10T00:56:37.883Z,940.02
2019-01-10T00:57:46.031Z,940.04
2019-01-10T00:58:54.074Z,940.05
2019-01-10T01:00:02.227Z,940.08
2019-01-10T01:01:10.163Z,940.16
2019-01-10T01:02:18.264Z,940.20
2019-01-10T01:03:26.255Z,940.17
2019-01-10T01:04:34.346Z,940.22
2019-01-10T01:05:42.518Z,940.25
2019-01-10T01:06:50.335Z,940.24
2019-01-10T01:07:58.594Z,940.21
2019-01-10T01:09:06.585Z,940.23
2019-01-10T01:10:14.509Z,940.23
2019-01-10T01:11:22.748Z,940.26
2019-01-10T01:12:30.649Z,940.30
2019-01-10T01:13:38.675Z,940.36
2019-01-10T01:14:46.712Z,940.30
2019-01-10T01:15:54.790Z,940.33
2019-01-10T01:17:02.958Z,940.33
2019-01-10T01:18:10.964Z,940.37
2019-01-10T01:19:18.939Z,940.37
2019-01-10T01:20:27.084Z,940.39
2019-01-10T01:21:35.087Z,940.38
2019-01-10T01:22:43.232Z,940.36
2019-01-10T01:23:51.127Z,940.36
2019-01-10T01:24:59.192Z,940.36
2019-01-10T01:26:07.254Z,940.37
2019-01-10T01:27:15.386Z,940.36
2019-01-10T01:28:23.551Z,940.40
2019-01-10T01:29:31.499Z,940.41
2019-01-10T01:30:39.463Z,940.43
2019-01-10T01:31:47.634Z,940.42
2019-01-10T01:32:55.743Z,940.48
2019-01-10T01:34:03.700Z,940.46
2019-01-10T01:35:11.676Z,940.50
2019-01-10T01:36:19.823Z,940.54
2019-01-10T01:37:27.873Z,940.54
2019-01-10T01:38:36.009Z,940.58
2019-01-10T01:39:43.983Z,940.59
2019-01-10T01:40:51.937Z,940.56
2019-01-10T01:42:00.110Z,940.57
2019-01-10T01:43:08.105Z,940.62
2019-01-10T01:44:16.220Z,940.61
2019-01-10T01:45:24.187Z,940.59
2019-01-10T01:46:32.295Z,940.61
2019-01-10T01:47:40.258Z,940.64
2019-01-10T01:48:48.376Z,940.63
2019-01-10T01:49:56.539Z,940.67
2019-01-10T01:51:04.519Z,940.61
2019-01-10T01:52:12.461Z,940.63
2019-01-10T01:53:20.665Z,940.67
2019-01-10T01:54:28.575Z,940.69
2019-01-10T01:55:36.807Z,940.70
2019-01-10T01:56:44.877Z,940.72
2019-01-10T01:57:52.803Z,940.74
2019-01-10T01:59:00.751Z,940.80
2019-01-10T02:00:08.841Z,940.81
2019-01-10T02:01:17.058Z,940.80
2019-01-10T02:02:25.006Z,940.87
2019-01-10T02:03:33.099Z,940.88
2019-01-10T02:04:41.034Z,940.91
2019-01-10T02:05:49.106Z,940.94
2019-01-10T02:06:57.320Z,940.95
2019-01-10T02:08:05.375Z,940.96
2019-01-10T02:09:13.274Z,940.96
2019-01-10T02:10:21.421Z,940.93
2019-01-10T02:11:29.368Z,940.91
2019-01-10T02:12:37.564Z,940.89
2019-01-10T02:13:45.522Z,940.94
2019-01-10T02:14:53.521Z,940.94
2019-01-10T02:16:01.680Z,940.91
2019-01-10T02:17:09.641Z,940.91
2019-01-10T02:18:17.826Z,940.92
2019-01-10T02:19:25.783Z,940.95
2019-01-10T02:20:33.795Z,940.93
2019-01-10T02:21:41.933Z,940.96
2019-01-10T02:22:50.075Z,940.97
2019-01-10T02:23:58.159Z,940.94
2019-01-10T02:25:06.014Z,940.95
2019-01-10T02:26:14.060Z,940.95
2019-01-10T02:27:22.287Z,940.98
2019-01-10T02:28:30.255Z,940.99
2019-01-10T02:29:38.390Z,940.98
2019-01-10T02:30:46.327Z,940.99
2019-01-10T02:31:54.337Z,940.99
2019-01-10T02:33:02.489Z,941.06
2019-01-10T02:34:10.473Z,941.05
2019-01-10T02:35:18.659Z,941.07
2019-01-10T02:36:26.641Z,941.02
2019-01-10T02:37:34.710Z,941.10
2019-01-10T02:38:42.877Z,941.07
2019-01-10T02:39:50.822Z,941.11
2019-01-10T02:40:58.977Z,941.14
2019-01-10T02:42:06.883Z,941.06
2019-01-10T02:43:14.974Z,941.15
2019-01-10T02:44:23.002Z,941.10
2019-01-10T02:45:30.951Z,941.10
2019-01-10T02:46:39.177Z,941.11
2019-01-10T02:47:47.130Z,941.06
2019-01-10T02:48:55.128Z,941.07
2019-01-10T02:50:03.299Z,941.02
2019-01-10T02:51:11.317Z,941.01
2019-01-10T02:52:19.450Z,940.96
2019-01-10T02:53:27.437Z,940.97
2019-01-10T02:54:35.594Z,940.94
2019-01-10T02:55:43.564Z,940.93
2019-01-10T02:56:51.622Z,940.97
2019-01-10T02:57:59.765Z,940.96
2019-01-10T02:59:07.742Z,940.98
2019-01-10T03:00:15.773Z,940.95
2019-01-10T03:01:23.730Z,940.95
2019-01-10T03:02:31.875Z,940.95
2019-01-10T03:03:39.865Z,940.94
2019-01-10T03:04:47.985Z,940.95
2019-01-10T03:05:56.138Z,940.92
2019-01-10T03:07:04.032Z,940.94
2019-01-10T03:08:12.240Z,940.96
2019-01-10T03:09:20.106Z,940.95
2019-01-10T03:10:28.347Z,940.94
2019-01-10T03:11:36.336Z,940.95
2019-01-10T03:12:44.498Z,940.97
2019-01-10T03:13:52.310Z,940.94
2019-01-10T03:15:00.467Z,940.92
2019-01-10T03:16:08.508Z,940.94
2019-01-10T03:17:16.506Z,940.88
2019-01-10T03:18:24.728Z,940.90
2019-01-10T03:19:32.717Z,940.87
2019-01-10T03:20:40.726Z,940.86
2019-01-10T03:21:48.687Z,940.86
2019-01-10T03:22:56.825Z,940.84
2019-01-10T03:24:04.994Z,940.81
2019-01-10T03:25:12.944Z,940.80
2019-01-10T03:26:20.971Z,940.80
2019-01-10T03:27:29.088Z,940.78
2019-01-10T03:28:37.049Z,940.81
2019-01-10T03:29:45.269Z,940.83
2019-01-10T03:30:53.161Z,940.84
2019-01-10T03:32:01.250Z,940.91
2019-01-10T03:33:09.223Z,940.91
2019-01-10T03:34:17.400Z,940.94
2019-01-10T03:35:26.944Z,940.95
2019-01-10T03:36:33.544Z,941.03
2019-01-10T03:37:41.446Z,941.01
2019-01-10T03:38:49.635Z,940.98
2019-01-10T03:39:57.627Z,941.01
2019-01-10T03:41:05.805Z,941.00
2019-01-10T03:42:13.877Z,940.99
2019-01-10T03:43:21.733Z,940.98
2019-01-10T03:44:34.151Z,940.98
2019-01-10T03:45:37.927Z,940.99
2019-01-10T03:46:46.074Z,940.97
2019-01-10T03:47:53.955Z,940.95
2019-01-10T03:49:01.994Z,940.95
2019-01-10T03:50:10.042Z,940.95
2019-01-10T03:51:18.096Z,940.95
2019-01-10T03:52:26.336Z,940.93
2019-01-10T03:53:34.333Z,940.92
2019-01-10T03:54:42.386Z,940.89
2019-01-10T03:55:50.418Z,940.95
2019-01-10T03:56:58.500Z,940.90
2019-01-10T03:58:06.593Z,940.92
2019-01-10T03:59:14.531Z,940.93
2019-01-10T04:00:22.626Z,940.89
2019-01-10T04:01:30.624Z,940.87
2019-01-10T04:02:38.892Z,940.85
2019-01-10T04:03:46.906Z,940.82
2019-01-10T04:04:54.805Z,940.78
2019-01-10T04:06:02.893Z,940.82
2019-01-10T04:07:10.947Z,940.84
2019-01-10T04:08:19.164Z,940.83
2019-01-10T04:09:27.063Z,940.78
2019-01-10T04:10:35.155Z,940.77
2019-01-10T04:11:43.235Z,940.79
2019-01-10T04:12:51.216Z,940.79
2019-01-10T04:13:59.371Z,940.75
2019-01-10T04:15:07.248Z,940.80
2019-01-10T04:16:15.391Z,940.83
2019-01-10T04:17:23.451Z,940.79
2019-01-10T04:18:31.482Z,940.83
2019-01-10T04:19:39.633Z,940.84
2019-01-10T04:20:47.516Z,940.85
2019-01-10T04:21:55.686Z,940.86
2019-01-10T04:23:03.621Z,940.90
2019-01-10T04:24:11.675Z,940.95
2019-01-10T04:25:19.892Z,940.93
2019-01-10T04:26:27.896Z,940.99
2019-01-10T04:27:36.043Z,941.01
2019-01-10T04:28:43.984Z,941.10
2019-01-10T04:29:51.965Z,941.16
2019-01-10T04:31:00.163Z,941.20
2019-01-10T04:32:08.105Z,941.19
2019-01-10T04:33:16.115Z,941.23
2019-01-10T04:34:24.325Z,941.21
2019-01-10T04:35:32.306Z,941.23
2019-01-10T04:36:40.322Z,941.21
2019-01-10T04:37:48.466Z,941.26
2019-01-10T04:38:56.472Z,941.24
2019-01-10T04:40:04.558Z,941.26
2019-01-10T04:41:12.709Z,941.28
2019-01-10T04:42:21.808Z,941.32
2019-01-10T04:43:28.760Z,941.29
2019-01-10T04:44:36.694Z,941.32
2019-01-10T04:45:44.923Z,941.31
2019-01-10T04:46:52.950Z,941.32
2019-01-10T04:48:00.809Z,941.26
2019-01-10T04:49:08.954Z,941.30
2019-01-10T04:50:16.979Z,941.28
2019-01-10T04:51:24.975Z,941.27
2019-01-10T04:52:33.258Z,941.34
2019-01-10T04:53:41.197Z,941.30
2019-01-10T04:54:49.237Z,941.28
2019-01-10T04:55:57.293Z,941.30
2019-01-10T04:57:05.367Z,941.34
2019-01-10T04:58:13.397Z,941.34
2019-01-10T04:59:21.500Z,941.41
2019-01-10T05:00:29.833Z,941.40
2019-01-10T05:01:37.686Z,941.34
2019-01-10T05:02:45.541Z,941.40
2019-01-10T05:03:54.620Z,941.39
2019-01-10T05:05:02.330Z,941.41
2019-01-10T05:06:09.693Z,941.35
2019-01-10T05:07:17.748Z,941.37
2019-01-10T05:08:25.823Z,941.39
2019-01-10T05:09:34.344Z,941.37
2019-01-10T05:10:41.915Z,941.39
2019-01-10T05:11:49.979Z,941.37
2019-01-10T05:12:58.117Z,941.36
2019-01-10T05:14:06.076Z,941.39
2019-01-10T05:15:14.143Z,941.40
2019-01-10T05:16:22.205Z,941.41
2019-01-10T05:17:30.353Z,941.43
2019-01-10T05:18:38.303Z,941.40
2019-01-10T05:19:46.356Z,941.42
2019-01-10T05:20:54.412Z,941.43
2019-01-10T05:22:03.003Z,941.43
2019-01-10T05:23:10.593Z,941.45
2019-01-10T05:24:19.212Z,941.41
2019-01-10T05:25:26.684Z,941.44
2019-01-10T05:26:34.691Z,941.41
2019-01-10T05:27:42.753Z,941.45
2019-01-10T05:28:51.026Z,941.40
2019-01-10T05:29:58.849Z,941.45
2019-01-10T05:31:06.906Z,941.41
2019-01-10T05:32:15.665Z,941.39
2019-01-10T05:33:23.095Z,941.42
2019-01-10T05:34:31.093Z,941.46
2019-01-10T05:35:39.129Z,941.39
2019-01-10T05:36:47.198Z,941.44
2019-01-10T05:37:55.230Z,941.38
2019-01-10T05:39:03.273Z,941.40
2019-01-10T05:40:11.408Z,941.43
2019-01-10T05:41:19.383Z,941.45
2019-01-10T05:42:27.449Z,941.43
2019-01-10T05:43:35.491Z,941.47
2019-01-10T05:44:43.549Z,941.49
2019-01-10T05:45:51.700Z,941.49
2019-01-10T05:46:59.674Z,941.55
2019-01-10T05:48:07.708Z,941.52
2019-01-10T05:49:15.970Z,941.58
2019-01-10T05:50:23.842Z,941.56
2019-01-10T05:51:32.145Z,941.60
2019-01-10T05:52:39.958Z,941.59
2019-01-10T05:53:48.171Z,941.59
2019-01-10T05:54:56.058Z,941.63
2019-01-10T05:56:04.098Z,941.58
2019-01-10T05:57:12.273Z,941.62
2019-01-10T05:58:20.830Z,941.63
2019-01-10T05:59:28.277Z,941.61
2019-01-10T06:00:36.314Z,941.64
2019-01-10T06:01:44.373Z,941.67
2019-01-10T06:02:52.575Z,941.63
2019-01-10T06:04:00.588Z,941.60
2019-01-10T06:05:10.538Z,941.64
2019-01-10T06:06:16.602Z,941.65
2019-01-10T06:07:24.865Z,941.63
2019-01-10T06:08:33.005Z,941.66
2019-01-10T06:09:40.926Z,941.67
2019-01-10T06:10:48.823Z,941.67
2019-01-10T06:11:57.018Z,941.66
2019-01-10T06:13:05.093Z,941.67
2019-01-10T06:14:13.109Z,941.68
2019-01-10T06:15:21.137Z,941.68
2019-01-10T06:16:29.204Z,941.67
2019-01-10T06:17:37.386Z,941.70
2019-01-10T06:18:45.322Z,941.74
2019-01-10T06:19:53.249Z,941.78
2019-01-10T06:21:01.506Z,941.80
2019-01-10T06:22:09.464Z,941.78
2019-01-10T06:23:17.999Z,941.81
2019-01-10T06:24:25.586Z,941.83
2019-01-10T06:25:33.585Z,941.82
2019-01-10T06:26:41.661Z,941.81
2019-01-10T06:27:49.636Z,941.79
2019-01-10T06:28:57.885Z,941.84
2019-01-10T06:30:05.740Z,941.80
2019-01-10T06:31:13.922Z,941.86
2019-01-10T06:32:21.861Z,941.87
2019-01-10T06:33:30.022Z,941.86
2019-01-10T06:34:38.179Z,941.90
2019-01-10T06:35:46.113Z,941.89
2019-01-10T06:36:54.260Z,941.90
2019-01-10T06:38:02.130Z,941.90
2019-01-10T06:39:10.200Z,941.93
2019-01-10T06:40:18.436Z,941.92
2019-01-10T06:41:26.299Z,941.93
2019-01-10T06:42:34.395Z,941.94
2019-01-10T06:43:42.407Z,941.94
2019-01-10T06:44:50.573Z,941.97
2019-01-10T06:45:58.855Z,941.99
2019-01-10T06:47:06.672Z,941.98
2019-01-10T06:48:14.659Z,942.03
2019-01-10T06:49:22.678Z,942.03
2019-01-10T06:50:30.814Z,942.05
2019-01-10T06:51:38.973Z,942.03
2019-01-10T06:52:47.106Z,942.09
2019-01-10T06:53:54.903Z,942.10
2019-01-10T06:55:03.033Z,942.08
2019-01-10T06:56:11.093Z,942.07
2019-01-10T06:57:19.258Z,942.08
2019-01-10T06:58:27.235Z,942.10
2019-01-10T06:59:35.157Z,942.15
2019-01-10T07:00:43.224Z,942.15
2019-01-10T07:01:51.355Z,942.16
2019-01-10T07:02:59.472Z,942.13
2019-01-10T07:04:07.391Z,942.21
2019-01-10T07:05:15.571Z,942.19
2019-01-10T07:06:23.595Z,942.22
2019-01-10T07:07:31.793Z,942.21
2019-01-10T07:08:39.697Z,942.24
2019-01-10T07:09:47.679Z,942.24
2019-01-10T07:10:55.815Z,942.26
2019-01-10T07:12:03.787Z,942.21
2019-01-10T07:13:12.028Z,942.24
2019-01-10T07:14:20.014Z,942.23
2019-01-10T07:15:28.022Z,942.24
2019-01-10T07:16:36.038Z,942.25
2019-01-10T07:17:44.208Z,942.24
2019-01-10T07:18:52.097Z,942.29
2019-01-10T07:20:00.332Z,942.26
2019-01-10T07:21:08.346Z,942.33
2019-01-10T07:22:16.379Z,942.34
2019-01-10T07:23:24.420Z,942.34
2019-01-10T07:24:32.506Z,942.35
2019-01-10T07:25:40.529Z,942.31
2019-01-10T07:26:48.497Z,942.31
2019-01-10T07:27:56.786Z,942.31
2019-01-10T07:29:04.787Z,942.28
2019-01-10T07:30:12.771Z,942.30
2019-01-10T07:31:20.679Z,942.26
2019-01-10T07:32:28.843Z,942.28
2019-01-10T07:33:36.921Z,942.30
2019-01-10T07:34:45.095Z,942.32
2019-01-10T07:35:53.010Z,942.37
2019-01-10T07:37:01.092Z,942.31
2019-01-10T07:38:09.157Z,942.38
2019-01-10T07:39:17.311Z,942.39
2019-01-10T07:40:25.244Z,942.39
2019-01-10T07:41:33.193Z,942.39
2019-01-10T07:42:41.318Z,942.40
2019-01-10T07:43:49.417Z,942.43
2019-01-10T07:45:02.564Z,942.48
2019-01-10T07:46:05.609Z,942.47
2019-01-10T07:47:13.568Z,942.50
2019-01-10T07:48:21.526Z,942.53
2019-01-10T07:49:29.676Z,942.52
2019-01-10T07:50:37.787Z,942.51
2019-01-10T07:51:45.870Z,942.55
2019-01-10T07:52:53.825Z,942.56
2019-01-10T07:54:01.861Z,942.57
2019-01-10T07:55:10.041Z,942.58
2019-01-10T07:56:17.920Z,942.58
2019-01-10T07:57:26.058Z,942.58
2019-01-10T07:58:34.022Z,942.58
2019-01-10T07:59:42.075Z,942.58
2019-01-10T08:00:50.213Z,942.62
2019-01-10T08:01:58.304Z,942.61
2019-01-10T08:03:08.526Z,942.66
2019-01-10T08:04:14.304Z,942.69
2019-01-10T08:05:22.382Z,942.69
2019-01-10T08:06:30.504Z,942.72
2019-01-10T08:07:38.652Z,942.71
2019-01-10T08:08:46.517Z,942.71
2019-01-10T08:09:54.685Z,942.73
2019-01-10T08:11:02.870Z,942.79
2019-01-10T08:12:10.786Z,942.82
2019-01-10T08:13:19.601Z,942.82
2019-01-10T08:14:26.976Z,942.85
2019-01-10T08:15:34.849Z,942.87
2019-01-10T08:16:42.989Z,942.89
2019-01-10T08:17:51.024Z,942.93
2019-01-10T08:18:59.230Z,942.92
2019-01-10T08:20:07.209Z,942.94
2019-01-10T08:21:15.134Z,942.93
2019-01-10T08:22:27.892Z,942.95
2019-01-10T08:23:31.328Z,942.98
2019-01-10T08:24:39.447Z,942.95
2019-01-10T08:25:47.371Z,942.96
2019-01-10T08:26:55.574Z,943.02
2019-01-10T08:28:03.766Z,943.00
2019-01-10T08:29:11.634Z,942.99
2019-01-10T08:30:19.790Z,943.05
2019-01-10T08:31:27.736Z,943.10
2019-01-10T08:32:35.804Z,943.13
2019-01-10T08:33:43.878Z,943.10
2019-01-10T08:34:51.874Z,943.11
2019-01-10T08:36:00.088Z,943.12
2019-01-10T08:37:08.012Z,943.13
2019-01-10T08:38:15.956Z,943.13
2019-01-10T08:39:24.025Z,943.13
2019-01-10T08:40:32.184Z,943.19
2019-01-10T08:41:40.321Z,943.25
2019-01-10T08:42:48.329Z,943.28
2019-01-10T08:43:56.366Z,943.27
2019-01-10T08:45:04.344Z,943.25
2019-01-10T08:46:12.455Z,943.28
2019-01-10T08:47:20.487Z,943.28
2019-01-10T08:48:28.618Z,943.29
2019-01-10T08:49:36.521Z,943.27
2019-01-10T08:50:44.665Z,943.28
2019-01-10T08:51:52.672Z,943.30
2019-01-10T08:53:00.712Z,943.30
2019-01-10T08:54:08.814Z,943.32
2019-01-10T08:55:16.909Z,943.35
2019-01-10T08:56:24.947Z,943.34
2019-01-10T08:57:33.091Z,943.33
2019-01-10T08:58:41.046Z,943.32
2019-01-10T08:59:49.023Z,943.31
2019-01-10T09:00:57.197Z,943.28
2019-01-10T09:02:05.210Z,943.31
2019-01-10T09:03:13.341Z,943.34
2019-01-10T09:04:21.227Z,943.36
2019-01-10T09:05:29.351Z,943.34
2019-01-10T09:06:37.424Z,943.35
2019-01-10T09:07:45.549Z,943.37
2019-01-10T09:08:53.476Z,943.39
2019-01-10T09:10:01.527Z,943.38
2019-01-10T09:11:09.591Z,943.38
2019-01-10T09:12:17.729Z,943.41
2019-01-10T09:13:25.872Z,943.37
2019-01-10T09:14:33.774Z,943.38
2019-01-10T09:15:41.907Z,943.41
2019-01-10T09:16:49.879Z,943.41
2019-01-10T09:17:57.955Z,943.49
2019-01-10T09:19:06.181Z,943.48
2019-01-10T09:20:14.147Z,943.54
2019-01-10T09:21:23.458Z,943.49
2019-01-10T09:22:30.199Z,943.48
2019-01-10T09:23:38.195Z,943.49
2019-01-10T09:24:46.427Z,943.51
2019-01-10T09:25:54.333Z,943.51
2019-01-10T09:27:02.495Z,943.54
2019-01-10T09:28:10.557Z,943.55
2019-01-10T09:29:18.708Z,943.53
2019-01-10T09:30:26.638Z,943.51
2019-01-10T09:31:34.644Z,943.56
2019-01-10T09:32:42.863Z,943.58
2019-01-10T09:33:50.698Z,943.58
2019-01-10T09:34:58.954Z,943.59
2019-01-10T09:36:06.964Z,943.60
2019-01-10T09:37:14.941Z,943.55
2019-01-10T09:38:22.998Z,943.58
2019-01-10T09:39:30.999Z,943.58
2019-01-10T09:40:39.236Z,943.56
2019-01-10T09:41:47.187Z,943.59
2019-01-10T09:42:55.210Z,943.58
2019-01-10T09:44:03.349Z,943.59
2019-01-10T09:45:11.302Z,943.58
2019-01-10T09:46:19.549Z,943.59
2019-01-10T09:47:27.503Z,943.60
2019-01-10T09:48:35.468Z,943.58
2019-01-10T09:49:43.513Z,943.58
2019-01-10T09:50:51.565Z,943.58
2019-01-10T09:51:59.726Z,943.58
2019-01-10T09:53:07.815Z,943.60
2019-01-10T09:54:15.734Z,943.58
2019-01-10T09:55:23.844Z,943.59
2019-01-10T09:56:32.049Z,943.63
2019-01-10T09:57:40.093Z,943.67
2019-01-10T09:58:47.985Z,943.66
2019-01-10T09:59:56.126Z,943.66
2019-01-10T10:01:04.090Z,943.65
2019-01-10T10:02:12.156Z,943.68
2019-01-10T10:03:20.288Z,943.69
2019-01-10T10:04:28.257Z,943.68
2019-01-10T10:05:36.300Z,943.64
2019-01-10T10:06:44.376Z,943.71
2019-01-10T10:07:52.525Z,943.62
2019-01-10T10:09:00.456Z,943.67
2019-01-10T10:10:08.547Z,943.66
2019-01-10T10:11:16.610Z,943.66
2019-01-10T10:12:24.647Z,943.69
2019-01-10T10:13:32.697Z,943.69
2019-01-10T10:14:40.752Z,943.72
2019-01-10T10:15:52.581Z,943.70
2019-01-10T10:16:56.885Z,943.69
2019-01-10T10:18:05.030Z,943.71
2019-01-10T10:19:12.998Z,943.73
2019-01-10T10:20:21.035Z,943.71
2019-01-10T10:21:29.117Z,943.74
2019-01-10T10:22:37.262Z,943.74
2019-01-10T10:23:45.238Z,943.81
2019-01-10T10:24:53.282Z,943.76
2019-01-10T10:26:01.307Z,943.83
2019-01-10T10:27:09.391Z,943.80
2019-01-10T10:28:17.539Z,943.79
2019-01-10T10:29:25.506Z,943.82
2019-01-10T10:30:33.575Z,943.84
2019-01-10T10:31:41.717Z,943.83
2019-01-10T10:32:49.693Z,943.88
2019-01-10T10:33:57.838Z,943.88
2019-01-10T10:35:05.801Z,943.85
2019-01-10T10:36:13.846Z,943.86
2019-01-10T10:37:21.907Z,943.87
2019-01-10T10:38:29.957Z,943.91
2019-01-10T10:39:38.129Z,943.91
2019-01-10T10:40:46.097Z,943.90
2019-01-10T10:41:54.154Z,943.92
2019-01-10T10:43:02.207Z,943.96
2019-01-10T10:44:11.757Z,943.98
2019-01-10T10:45:18.327Z,943.94
2019-01-10T10:46:26.398Z,943.96
2019-01-10T10:47:34.491Z,943.99
2019-01-10T10:48:42.490Z,943.98
2019-01-10T10:49:50.585Z,944.01
2019-01-10T10:50:58.666Z,943.95
2019-01-10T10:52:06.694Z,943.91
2019-01-10T10:53:14.737Z,943.91
2019-01-10T10:54:22.833Z,943.95
2019-01-10T10:55:30.839Z,943.97
2019-01-10T10:56:38.910Z,943.93
2019-01-10T10:57:46.975Z,943.95
2019-01-10T10:58:55.018Z,944.00
2019-01-10T11:00:03.132Z,943.97
2019-01-10T11:01:11.129Z,943.96
2019-01-10T11:02:19.206Z,943.92
2019-01-10T11:03:27.312Z,943.91
2019-01-10T11:04:35.417Z,943.92
2019-01-10T11:05:43.374Z,943.89
2019-01-10T11:06:51.431Z,943.88
2019-01-10T11:07:59.505Z,943.85
2019-01-10T11:09:09.159Z,943.88
2019-01-10T11:10:15.709Z,943.85
2019-01-10T11:11:23.672Z,943.81
2019-01-10T11:12:31.727Z,943.82
2019-01-10T11:13:39.798Z,943.81
2019-01-10T11:14:48.382Z,943.78
2019-01-10T11:15:56.011Z,943.79
2019-01-10T11:17:03.976Z,943.84
2019-01-10T11:18:12.120Z,943.83
2019-01-10T11:19:20.086Z,943.88
2019-01-10T11:20:28.143Z,943.81
2019-01-10T11:21:36.312Z,943.80
2019-01-10T11:22:44.321Z,943.80
2019-01-10T11:23:52.311Z,943.76
2019-01-10T11:25:00.401Z,943.75
2019-01-10T11:26:08.439Z,943.75
2019-01-10T11:27:16.552Z,943.72
2019-01-10T11:28:24.556Z,943.75
2019-01-10T11:29:32.609Z,943.74
2019-01-10T11:30:40.749Z,943.72
2019-01-10T11:31:48.831Z,943.75
2019-01-10T11:32:56.883Z,943.75
2019-01-10T11:34:04.851Z,943.76
2019-01-10T11:35:12.918Z,943.74
2019-01-10T11:36:20.968Z,943.77
2019-01-10T11:37:29.086Z,943.70
2019-01-10T11:38:37.091Z,943.71
2019-01-10T11:39:45.137Z,943.80
2019-01-10T11:40:53.218Z,943.77
2019-01-10T11:42:01.251Z,943.77
2019-01-10T11:43:09.416Z,943.80
2019-01-10T11:44:17.385Z,943.81
2019-01-10T11:45:25.437Z,943.82
2019-01-10T11:46:33.496Z,943.78
2019-01-10T11:47:41.708Z,943.79
2019-01-10T11:48:49.714Z,943.77
2019-01-10T11:49:57.678Z,943.77
2019-01-10T11:51:05.749Z,943.80
2019-01-10T11:52:13.794Z,943.75
2019-01-10T11:53:21.837Z,943.78
2019-01-10T11:54:29.999Z,943.82
2019-01-10T11:55:37.965Z,943.80
2019-01-10T11:56:46.031Z,943.78
2019-01-10T11:57:54.084Z,943.76
2019-01-10T11:59:02.151Z,943.76
2019-01-10T12:00:10.645Z,943.80
2019-01-10T12:01:18.268Z,943.74
2019-01-10T12:02:26.313Z,943.83
2019-01-10T12:03:34.468Z,943.74
2019-01-10T12:04:42.426Z,943.76
2019-01-10T12:05:52.997Z,943.77
2019-01-10T12:06:58.564Z,943.80
2019-01-10T12:08:06.612Z,943.78
2019-01-10T12:09:14.670Z,943.78
2019-01-10T12:10:22.728Z,943.78
2019-01-10T12:11:30.839Z,943.70
2019-01-10T12:12:38.841Z,943.75
2019-01-10T12:13:46.890Z,943.78
2019-01-10T12:14:54.965Z,943.77
2019-01-10T12:16:03.014Z,943.76
2019-01-10T12:17:11.164Z,943.77
2019-01-10T12:18:19.145Z,943.77
2019-01-10T12:19:27.647Z,943.80
2019-01-10T12:20:35.252Z,943.79
2019-01-10T12:21:43.324Z,943.77
2019-01-10T12:22:51.439Z,943.77
2019-01-10T12:23:59.439Z,943.77
2019-01-10T12:25:07.529Z,943.78
2019-01-10T12:26:15.557Z,943.74
2019-01-10T12:27:23.638Z,943.72
2019-01-10T12:28:31.673Z,943.77
2019-01-10T12:29:39.729Z,943.73
2019-01-10T12:30:47.771Z,943.72
2019-01-10T12:31:55.877Z,943.74
2019-01-10T12:33:04.004Z,943.72
2019-01-10T12:34:12.003Z,943.71
2019-01-10T12:35:20.106Z,943.70
2019-01-10T12:36:28.048Z,943.71
2019-01-10T12:37:36.206Z,943.71
2019-01-10T12:38:44.195Z,943.72
2019-01-10T12:39:52.252Z,943.72
2019-01-10T12:41:00.355Z,943.71
2019-01-10T12:42:08.362Z,943.69
2019-01-10T12:43:16.566Z,943.70
2019-01-10T12:44:24.458Z,943.70
2019-01-10T12:45:32.535Z,943.69
2019-01-10T12:46:40.590Z,943.67
2019-01-10T12:47:48.687Z,943.68
2019-01-10T12:48:56.812Z,943.69
2019-01-10T12:50:04.809Z,943.69
2019-01-10T12:51:12.911Z,943.67
2019-01-10T12:52:20.886Z,943.68
2019-01-10T12:53:28.946Z,943.69
2019-01-10T12:54:37.111Z,943.65
2019-01-10T12:55:45.066Z,943.63
2019-01-10T12:56:53.166Z,943.65
2019-01-10T12:58:01.161Z,943.62
2019-01-10T12:59:09.235Z,943.62
2019-01-10T13:00:17.381Z,943.63
2019-01-10T13:01:25.364Z,943.66
2019-01-10T13:02:33.406Z,943.67
2019-01-10T13:03:41.462Z,943.69
2019-01-10T13:04:49.515Z,943.67
2019-01-10T13:05:57.735Z,943.66
2019-01-10T13:07:05.744Z,943.65
2019-01-10T13:08:13.699Z,943.68
2019-01-10T13:09:21.765Z,943.65
2019-01-10T13:10:29.922Z,943.65
2019-01-10T13:11:37.879Z,943.68
2019-01-10T13:12:45.941Z,943.69
2019-01-10T13:13:54.142Z,943.68
2019-01-10T13:15:02.108Z,943.69
2019-01-10T13:16:10.198Z,943.69
2019-01-10T13:17:18.174Z,943.70
2019-01-10T13:18:26.226Z,943.71
2019-01-10T13:19:34.282Z,943.70
2019-01-10T13:20:42.336Z,943.71
2019-01-10T13:21:50.873Z,943.68
2019-01-10T13:22:58.550Z,943.72
2019-01-10T13:24:06.581Z,943.71
2019-01-10T13:25:14.590Z,943.75
2019-01-10T13:26:22.616Z,943.77
2019-01-10T13:27:30.769Z,943.74
2019-01-10T13:28:38.743Z,943.75
2019-01-10T13:29:46.804Z,943.76
2019-01-10T13:30:54.908Z,943.71
2019-01-10T13:32:02.919Z,943.71
2019-01-10T13:33:11.042Z,943.71
2019-01-10T13:34:19.028Z,943.71
2019-01-10T13:35:27.103Z,943.70
2019-01-10T13:36:35.163Z,943.75
2019-01-10T13:37:43.301Z,943.72
2019-01-10T13:38:51.241Z,943.74
2019-01-10T13:39:59.314Z,943.72
2019-01-10T13:41:07.379Z,943.76
2019-01-10T13:42:15.437Z,943.72
2019-01-10T13:43:23.601Z,943.72
2019-01-10T13:44:31.552Z,943.72
2019-01-10T13:45:45.935Z,943.72
2019-01-10T13:46:55.362Z,943.71
2019-01-10T13:47:55.718Z,943.74
2019-01-10T13:49:03.882Z,943.71
2019-01-10T13:50:11.830Z,943.71
2019-01-10T13:51:19.901Z,943.73
2019-01-10T13:52:27.945Z,943.69
2019-01-10T13:53:36.159Z,943.68
2019-01-10T13:54:44.120Z,943.73
2019-01-10T13:55:52.134Z,943.72
2019-01-10T13:57:00.188Z,943.74
2019-01-10T13:58:08.253Z,943.72
2019-01-10T13:59:16.309Z,943.78
2019-01-10T14:00:24.469Z,943.72
2019-01-10T14:01:32.441Z,943.76
2019-01-10T14:02:40.467Z,943.77
2019-01-10T14:03:48.544Z,943.78
2019-01-10T14:04:56.580Z,943.78
2019-01-10T14:06:04.732Z,943.82
2019-01-10T14:07:12.692Z,943.82
2019-01-10T14:08:20.765Z,943.81
2019-01-10T14:09:28.940Z,943.78